createdAt,value
2019-02-15T00:00:01.183Z,58.84
2019-02-15T00:02:49.390Z,59.38
2019-02-15T00:05:37.452Z,59.16
2019-02-15T00:08:25.043Z,59.42
2019-02-15T00:11:12.980Z,58.97
2019-02-15T00:14:01.313Z,59.79
2019-02-15T00:16:49.191Z,60.03
2019-02-15T00:19:40.954Z,59.59
2019-02-15T00:22:29.201Z,60.05
2019-02-15T00:25:17.028Z,59.19
2019-02-15T00:28:04.913Z,58.87
2019-02-15T00:30:52.845Z,59.85
2019-02-15T00:33:41.108Z,60.33
2019-02-15T00:36:28.690Z,60.49
2019-02-15T00:39:16.472Z,60.22
2019-02-15T00:42:04.534Z,59.71
2019-02-15T00:44:52.431Z,59.47
2019-02-15T00:47:43.892Z,59.90
2019-02-15T00:50:56.529Z,59.84
2019-02-15T00:53:52.604Z,59.00
2019-02-15T00:57:08.847Z,58.69
2019-02-15T01:00:15.791Z,58.31
2019-02-15T01:03:28.440Z,57.93
2019-02-15T01:06:44.710Z,57.57
2019-02-15T01:09:46.632Z,57.81
2019-02-15T01:12:40.289Z,57.90
2019-02-15T01:15:28.350Z,57.75
2019-02-15T01:18:15.942Z,58.00
2019-02-15T01:21:03.757Z,58.56
2019-02-15T01:23:51.934Z,59.58
2019-02-15T01:26:42.436Z,59.49
2019-02-15T01:29:52.247Z,59.59
2019-02-15T01:32:51.882Z,60.02
2019-02-15T01:35:54.292Z,59.75
2019-02-15T01:39:04.290Z,59.80
2019-02-15T01:42:23.198Z,59.57
2019-02-15T01:45:23.844Z,58.73
2019-02-15T01:48:12.250Z,59.20
2019-02-15T01:51:00.331Z,59.10
2019-02-15T01:53:48.726Z,59.99
2019-02-15T01:56:36.364Z,59.82
2019-02-15T01:59:24.808Z,60.61
2019-02-15T02:02:12.677Z,60.99
2019-02-15T02:05:00.817Z,60.14
2019-02-15T02:07:49.172Z,59.19
2019-02-15T02:10:37.153Z,59.42
2019-02-15T02:13:24.800Z,59.44
2019-02-15T02:16:12.985Z,59.58
2019-02-15T02:19:00.513Z,60.00
2019-02-15T02:21:48.669Z,59.97
2019-02-15T02:24:36.480Z,60.03
2019-02-15T02:27:24.638Z,59.76
2019-02-15T02:30:12.612Z,59.48
2019-02-15T02:33:00.629Z,59.27
2019-02-15T02:35:48.893Z,60.13
2019-02-15T02:38:36.776Z,60.52
2019-02-15T02:41:24.356Z,60.16
2019-02-15T02:44:12.331Z,60.72
2019-02-15T02:47:00.267Z,61.08
2019-02-15T02:49:48.599Z,61.21
2019-02-15T02:52:36.128Z,61.37
2019-02-15T02:55:24.342Z,61.49
2019-02-15T02:58:12.168Z,61.80
2019-02-15T03:01:00.059Z,61.94
2019-02-15T03:03:47.868Z,62.19
2019-02-15T03:06:35.792Z,61.88
2019-02-15T03:09:23.347Z,61.62
2019-02-15T03:12:11.516Z,61.19
2019-02-15T03:14:59.670Z,61.36
2019-02-15T03:17:47.623Z,61.95
2019-02-15T03:20:35.555Z,61.74
2019-02-15T03:23:23.397Z,61.65
2019-02-15T03:26:11.306Z,60.74
2019-02-15T03:28:59.436Z,60.57
2019-02-15T03:31:47.500Z,61.23
2019-02-15T03:34:36.511Z,61.00
2019-02-15T03:38:01.694Z,61.17
2019-02-15T03:40:52.996Z,61.39
2019-02-15T03:43:41.050Z,61.84
2019-02-15T03:46:29.148Z,61.39
2019-02-15T03:49:17.289Z,61.29
2019-02-15T03:52:05.373Z,62.42
2019-02-15T03:54:53.753Z,61.68
2019-02-15T03:57:41.549Z,62.44
2019-02-15T04:00:29.538Z,62.40
2019-02-15T04:03:17.067Z,62.61
2019-02-15T04:06:05.047Z,62.65
2019-02-15T04:08:53.348Z,62.18
2019-02-15T04:11:41.445Z,62.11
2019-02-15T04:14:32.759Z,62.50
2019-02-15T04:17:21.870Z,62.56
2019-02-15T04:20:10.010Z,62.97
2019-02-15T04:22:58.190Z,62.80
2019-02-15T04:25:46.170Z,62.99
2019-02-15T04:28:34.154Z,63.63
2019-02-15T04:31:21.994Z,62.82
2019-02-15T04:34:09.840Z,62.79
2019-02-15T04:36:58.212Z,62.69
2019-02-15T04:39:46.542Z,62.59
2019-02-15T04:42:34.233Z,62.60
2019-02-15T04:45:22.109Z,62.76
2019-02-15T04:48:10.300Z,62.63
2019-02-15T04:50:58.841Z,62.71
2019-02-15T04:53:46.894Z,62.64
2019-02-15T04:56:34.479Z,62.82
2019-02-15T04:59:22.339Z,62.90
2019-02-15T05:02:10.314Z,61.22
2019-02-15T05:04:58.225Z,61.53
2019-02-15T05:07:46.099Z,61.08
2019-02-15T05:10:34.365Z,61.19
2019-02-15T05:13:22.798Z,61.49
2019-02-15T05:16:10.996Z,61.84
2019-02-15T05:18:59.150Z,61.76
2019-02-15T05:21:46.681Z,61.73
2019-02-15T05:24:35.034Z,62.44
2019-02-15T05:27:22.927Z,62.34
2019-02-15T05:30:11.176Z,62.43
2019-02-15T05:32:59.360Z,62.73
2019-02-15T05:35:47.411Z,63.16
2019-02-15T05:38:35.074Z,63.23
2019-02-15T05:41:22.933Z,63.41
2019-02-15T05:44:10.885Z,63.21
2019-02-15T05:46:59.052Z,63.38
2019-02-15T05:49:47.139Z,63.36
2019-02-15T05:52:35.378Z,63.75
2019-02-15T05:55:23.504Z,63.80
2019-02-15T05:58:11.870Z,64.21
2019-02-15T06:01:00.389Z,64.29
2019-02-15T06:03:48.347Z,64.20
2019-02-15T06:06:36.263Z,64.08
2019-02-15T06:09:24.549Z,63.31
2019-02-15T06:12:12.605Z,63.98
2019-02-15T06:15:00.411Z,63.72
2019-02-15T06:17:48.805Z,63.76
2019-02-15T06:20:36.952Z,63.92
2019-02-15T06:23:24.662Z,64.15
2019-02-15T06:26:12.555Z,64.09
2019-02-15T06:29:00.634Z,64.00
2019-02-15T06:31:49.168Z,63.99
2019-02-15T06:34:37.159Z,64.34
2019-02-15T06:37:25.282Z,64.09
2019-02-15T06:40:13.203Z,63.78
2019-02-15T06:43:01.213Z,63.86
2019-02-15T06:45:49.416Z,63.48
2019-02-15T06:48:37.022Z,62.89
2019-02-15T06:51:25.075Z,62.95
2019-02-15T06:54:13.163Z,62.51
2019-02-15T06:57:01.178Z,62.54
2019-02-15T07:00:06.842Z,62.74
2019-02-15T07:02:59.415Z,62.94
2019-02-15T07:05:47.380Z,62.40
2019-02-15T07:08:35.223Z,62.64
2019-02-15T07:11:23.572Z,63.10
2019-02-15T07:14:11.841Z,63.32
2019-02-15T07:16:59.887Z,63.21
2019-02-15T07:19:48.083Z,63.00
2019-02-15T07:22:36.380Z,62.62
2019-02-15T07:25:24.435Z,62.25
2019-02-15T07:28:12.237Z,61.83
2019-02-15T07:31:00.181Z,61.54
2019-02-15T07:33:48.627Z,61.73
2019-02-15T07:36:36.759Z,60.14
2019-02-15T07:39:24.955Z,57.67
2019-02-15T07:42:13.169Z,54.47
2019-02-15T07:45:01.040Z,51.95
2019-02-15T07:47:49.011Z,50.81
2019-02-15T07:50:36.807Z,49.38
2019-02-15T07:53:24.363Z,49.03
2019-02-15T07:56:12.479Z,48.33
2019-02-15T07:59:00.515Z,47.55
2019-02-15T08:01:48.375Z,47.76
2019-02-15T08:04:36.347Z,47.97
2019-02-15T08:07:24.528Z,47.78
2019-02-15T08:10:12.634Z,47.77
2019-02-15T08:13:00.491Z,47.60
2019-02-15T08:15:52.022Z,47.55
2019-02-15T08:18:37.647Z,47.45
2019-02-15T08:21:25.564Z,46.55
2019-02-15T08:24:13.826Z,47.34
2019-02-15T08:27:01.803Z,47.57
2019-02-15T08:29:49.787Z,46.95
2019-02-15T08:32:37.717Z,46.76
2019-02-15T08:35:25.933Z,46.11
2019-02-15T08:38:14.023Z,46.05
2019-02-15T08:41:02.025Z,46.90
2019-02-15T08:43:49.992Z,46.68
2019-02-15T08:46:38.365Z,47.28
2019-02-15T08:49:26.152Z,47.77
2019-02-15T08:52:14.788Z,48.32
2019-02-15T08:55:03.010Z,48.37
2019-02-15T08:57:51.135Z,48.02
2019-02-15T09:00:39.276Z,47.28
2019-02-15T09:03:27.345Z,47.37
2019-02-15T09:06:15.430Z,47.29
2019-02-15T09:09:05.101Z,47.66
2019-02-15T09:11:52.929Z,46.69
2019-02-15T09:14:41.236Z,47.79
2019-02-15T09:17:29.358Z,47.78
2019-02-15T09:20:17.498Z,48.72
2019-02-15T09:23:05.781Z,49.17
2019-02-15T09:25:53.651Z,49.27
2019-02-15T09:28:46.216Z,49.78
2019-02-15T09:31:34.103Z,49.99
2019-02-15T09:34:21.900Z,49.74
2019-02-15T09:37:09.923Z,49.26
2019-02-15T09:39:57.784Z,49.33
2019-02-15T09:42:45.678Z,49.39
2019-02-15T09:45:33.263Z,48.91
2019-02-15T09:48:20.996Z,48.60
2019-02-15T09:51:09.275Z,48.68
2019-02-15T09:53:57.550Z,48.81
2019-02-15T09:56:45.757Z,48.74
2019-02-15T09:59:33.858Z,48.89
2019-02-15T10:02:21.744Z,48.34
2019-02-15T10:05:09.499Z,48.05
2019-02-15T10:07:57.613Z,47.65
2019-02-15T10:10:45.816Z,47.21
2019-02-15T10:13:34.003Z,47.59
2019-02-15T10:16:28.623Z,46.97
2019-02-15T10:19:11.565Z,47.61
2019-02-15T10:21:59.593Z,47.49
2019-02-15T10:24:48.503Z,47.46
2019-02-15T10:27:36.099Z,47.12
2019-02-15T10:30:24.172Z,46.55
2019-02-15T10:33:12.142Z,45.92
2019-02-15T10:36:00.352Z,46.67
2019-02-15T10:38:48.064Z,46.10
2019-02-15T10:41:36.250Z,45.81
2019-02-15T10:44:26.183Z,45.73
2019-02-15T10:47:22.953Z,44.80
2019-02-15T10:50:05.170Z,45.18
2019-02-15T10:52:53.340Z,44.83
2019-02-15T10:55:41.422Z,44.44
2019-02-15T10:58:29.410Z,44.50
2019-02-15T11:01:17.593Z,44.70
2019-02-15T11:04:05.425Z,44.00
2019-02-15T11:06:53.041Z,44.64
2019-02-15T11:09:40.911Z,44.31
2019-02-15T11:12:29.167Z,44.09
2019-02-15T11:15:17.279Z,43.69
2019-02-15T11:18:05.472Z,43.75
2019-02-15T11:20:53.625Z,43.63
2019-02-15T11:23:41.895Z,43.55
2019-02-15T11:26:29.920Z,43.47
2019-02-15T11:29:18.326Z,43.16
2019-02-15T11:32:06.730Z,43.19
2019-02-15T11:34:54.921Z,43.55
2019-02-15T11:37:42.893Z,43.00
2019-02-15T11:40:31.180Z,42.44
2019-02-15T11:43:19.321Z,42.46
2019-02-15T11:46:07.579Z,42.13
2019-02-15T11:48:55.181Z,42.08
2019-02-15T11:51:43.222Z,42.57
2019-02-15T11:54:31.450Z,42.66
2019-02-15T11:57:19.300Z,41.96
2019-02-15T12:00:14.315Z,42.23
2019-02-15T12:02:58.903Z,41.87
2019-02-15T12:05:47.108Z,42.82
2019-02-15T12:08:35.197Z,42.10
2019-02-15T12:11:23.226Z,41.83
2019-02-15T12:14:10.839Z,41.93
2019-02-15T12:17:05.508Z,41.50
2019-02-15T12:19:48.848Z,41.78
2019-02-15T12:22:37.123Z,41.73
2019-02-15T12:25:25.687Z,41.64
2019-02-15T12:28:13.525Z,41.44
2019-02-15T12:31:01.522Z,41.52
2019-02-15T12:33:49.498Z,41.40
2019-02-15T12:36:37.685Z,40.98
2019-02-15T12:39:25.581Z,40.91
2019-02-15T12:42:13.471Z,40.88
2019-02-15T12:45:01.403Z,40.85
2019-02-15T12:47:49.065Z,40.72
2019-02-15T12:50:37.182Z,40.71
2019-02-15T12:53:24.722Z,40.38
2019-02-15T12:56:12.838Z,40.36
2019-02-15T12:59:00.981Z,40.65
2019-02-15T13:01:48.773Z,40.28
2019-02-15T13:04:36.612Z,40.21
2019-02-15T13:07:24.845Z,40.13
2019-02-15T13:10:15.349Z,39.88
2019-02-15T13:13:03.542Z,40.15
2019-02-15T13:15:51.317Z,39.88
2019-02-15T13:18:39.909Z,40.07
2019-02-15T13:21:27.997Z,40.00
2019-02-15T13:24:16.029Z,40.04
2019-02-15T13:27:03.922Z,39.77
2019-02-15T13:29:51.504Z,39.69
2019-02-15T13:32:39.622Z,39.44
2019-02-15T13:35:28.054Z,39.93
2019-02-15T13:38:15.982Z,39.87
2019-02-15T13:41:03.825Z,39.15
2019-02-15T13:43:51.623Z,39.08
2019-02-15T13:46:39.741Z,38.57
2019-02-15T13:49:27.609Z,38.41
2019-02-15T13:52:15.651Z,38.78
2019-02-15T13:55:03.493Z,37.17
2019-02-15T13:57:52.007Z,37.94
2019-02-15T14:00:39.950Z,38.27
2019-02-15T14:03:27.826Z,38.47
2019-02-15T14:06:15.780Z,38.15
2019-02-15T14:09:05.076Z,38.37
2019-02-15T14:11:53.068Z,38.59
2019-02-15T14:14:40.928Z,37.99
2019-02-15T14:17:28.814Z,38.25
2019-02-15T14:20:16.817Z,38.29
2019-02-15T14:23:05.241Z,37.36
2019-02-15T14:25:53.064Z,37.96
2019-02-15T14:28:41.187Z,37.94
2019-02-15T14:31:28.790Z,37.82
2019-02-15T14:34:16.689Z,37.76
2019-02-15T14:37:04.506Z,37.41
2019-02-15T14:39:52.604Z,38.19
2019-02-15T14:42:40.616Z,38.08
2019-02-15T14:45:28.650Z,38.19
2019-02-15T14:48:16.834Z,37.97
2019-02-15T14:51:04.515Z,37.81
2019-02-15T14:53:52.687Z,38.00
2019-02-15T14:56:40.334Z,38.07
2019-02-15T14:59:28.403Z,38.35
2019-02-15T15:02:16.333Z,38.53
2019-02-15T15:05:04.580Z,38.67
2019-02-15T15:07:52.226Z,38.86
2019-02-15T15:10:40.171Z,39.17
2019-02-15T15:13:28.239Z,38.92
2019-02-15T15:16:17.772Z,39.32
2019-02-15T15:19:05.861Z,39.44
2019-02-15T15:21:53.840Z,39.33
2019-02-15T15:24:42.084Z,39.21
2019-02-15T15:27:30.031Z,39.64
2019-02-15T15:30:18.475Z,40.07
2019-02-15T15:33:06.722Z,40.09
2019-02-15T15:35:54.658Z,40.32
2019-02-15T15:38:42.642Z,40.04
2019-02-15T15:41:30.794Z,40.22
2019-02-15T15:44:19.054Z,40.57
2019-02-15T15:47:07.450Z,40.97
2019-02-15T15:49:55.312Z,41.39
2019-02-15T15:52:43.643Z,41.27
2019-02-15T15:55:31.794Z,41.12
2019-02-15T15:58:20.023Z,41.42
2019-02-15T16:01:07.831Z,41.36
2019-02-15T16:03:55.439Z,41.95
2019-02-15T16:06:43.778Z,41.23
2019-02-15T16:09:32.657Z,41.68
2019-02-15T16:12:20.535Z,42.10
2019-02-15T16:15:09.620Z,42.50
2019-02-15T16:17:57.841Z,42.88
2019-02-15T16:20:45.850Z,42.89
2019-02-15T16:23:33.878Z,43.12
2019-02-15T16:26:22.102Z,43.42
2019-02-15T16:29:10.374Z,43.49
2019-02-15T16:31:58.376Z,43.71
2019-02-15T16:34:46.448Z,43.77
2019-02-15T16:37:34.013Z,44.02
2019-02-15T16:40:22.117Z,44.23
2019-02-15T16:43:10.058Z,44.14
2019-02-15T16:45:58.131Z,44.15
2019-02-15T16:48:45.877Z,44.22
2019-02-15T16:51:34.069Z,44.61
2019-02-15T16:54:21.658Z,44.87
2019-02-15T16:57:09.426Z,45.06
2019-02-15T16:59:57.614Z,45.02
2019-02-15T17:02:45.350Z,44.59
2019-02-15T17:05:33.784Z,44.70
2019-02-15T17:08:21.687Z,45.17
2019-02-15T17:11:09.961Z,45.46
2019-02-15T17:13:59.857Z,45.33
2019-02-15T17:16:48.278Z,45.64
2019-02-15T17:19:36.142Z,46.77
2019-02-15T17:22:24.203Z,47.02
2019-02-15T17:25:13.331Z,47.25
2019-02-15T17:28:01.259Z,47.27
2019-02-15T17:30:49.134Z,47.50
2019-02-15T17:33:37.126Z,47.58
2019-02-15T17:36:25.008Z,47.71
2019-02-15T17:39:12.638Z,47.63
2019-02-15T17:42:00.770Z,48.19
2019-02-15T17:44:48.842Z,48.29
2019-02-15T17:47:36.785Z,48.34
2019-02-15T17:50:24.910Z,47.97
2019-02-15T17:53:12.724Z,47.82
2019-02-15T17:56:00.283Z,47.68
2019-02-15T17:58:48.721Z,48.51
2019-02-15T18:01:36.618Z,48.71
2019-02-15T18:04:24.747Z,48.86
2019-02-15T18:07:12.844Z,49.32
2019-02-15T18:10:00.791Z,49.36
2019-02-15T18:12:48.682Z,49.20
2019-02-15T18:15:36.524Z,49.11
2019-02-15T18:18:24.460Z,49.24
2019-02-15T18:21:12.357Z,49.13
2019-02-15T18:24:00.726Z,49.39
2019-02-15T18:26:49.327Z,48.64
2019-02-15T18:29:37.406Z,48.67
2019-02-15T18:32:25.562Z,48.82
2019-02-15T18:35:13.458Z,49.02
2019-02-15T18:38:01.767Z,49.70
2019-02-15T18:40:50.430Z,49.19
2019-02-15T18:43:38.296Z,49.43
2019-02-15T18:46:25.952Z,50.03
2019-02-15T18:49:19.425Z,50.26
2019-02-15T18:52:03.575Z,50.53
2019-02-15T18:54:52.092Z,50.53
2019-02-15T18:57:40.657Z,50.56
2019-02-15T19:00:28.673Z,50.38
2019-02-15T19:03:17.175Z,50.64
2019-02-15T19:06:04.758Z,50.41
2019-02-15T19:08:53.177Z,49.68
2019-02-15T19:11:41.061Z,50.22
2019-02-15T19:14:29.123Z,49.95
2019-02-15T19:17:17.080Z,49.97
2019-02-15T19:20:05.445Z,50.06
2019-02-15T19:22:53.582Z,49.66
2019-02-15T19:25:41.734Z,49.38
2019-02-15T19:28:29.524Z,49.32
2019-02-15T19:31:17.403Z,49.49
2019-02-15T19:34:05.283Z,49.10
2019-02-15T19:36:53.854Z,49.27
2019-02-15T19:39:41.851Z,49.19
2019-02-15T19:42:30.000Z,49.34
2019-02-15T19:45:18.301Z,49.36
2019-02-15T19:48:06.285Z,49.42
2019-02-15T19:50:54.540Z,49.89
2019-02-15T19:53:42.761Z,49.96
2019-02-15T19:56:30.665Z,50.25
2019-02-15T19:59:18.313Z,50.77
2019-02-15T20:02:06.204Z,51.18
2019-02-15T20:04:53.800Z,51.58
2019-02-15T20:07:41.979Z,51.72
2019-02-15T20:10:30.273Z,52.03
2019-02-15T20:13:18.488Z,52.29
2019-02-15T20:16:06.690Z,53.20
2019-02-15T20:18:54.791Z,53.02
2019-02-15T20:21:42.675Z,53.56
2019-02-15T20:24:30.752Z,52.91
2019-02-15T20:27:18.665Z,52.85
2019-02-15T20:30:09.791Z,52.61
2019-02-15T20:32:57.921Z,52.41
2019-02-15T20:35:46.135Z,52.66
2019-02-15T20:38:34.539Z,52.42
2019-02-15T20:41:22.769Z,52.09
2019-02-15T20:44:10.595Z,52.16
2019-02-15T20:46:59.122Z,51.74
2019-02-15T20:49:47.146Z,51.94
2019-02-15T20:52:35.244Z,51.72
2019-02-15T20:55:23.345Z,51.76
2019-02-15T20:58:11.517Z,51.95
2019-02-15T21:01:00.331Z,52.09
2019-02-15T21:03:48.326Z,52.32
2019-02-15T21:06:36.276Z,52.67
2019-02-15T21:09:24.074Z,52.51
2019-02-15T21:12:11.902Z,52.76
2019-02-15T21:14:59.993Z,52.73
2019-02-15T21:17:48.085Z,53.00
2019-02-15T21:20:35.959Z,52.71
2019-02-15T21:23:24.295Z,52.84
2019-02-15T21:26:11.813Z,52.82
2019-02-15T21:29:00.016Z,52.78
2019-02-15T21:31:47.831Z,52.96
2019-02-15T21:34:36.211Z,53.17
2019-02-15T21:37:23.994Z,53.32
2019-02-15T21:40:13.364Z,53.33
2019-02-15T21:43:01.525Z,53.35
2019-02-15T21:45:49.527Z,53.38
2019-02-15T21:48:37.627Z,53.41
2019-02-15T21:51:25.503Z,53.49
2019-02-15T21:54:13.827Z,53.72
2019-02-15T21:57:01.833Z,53.31
2019-02-15T21:59:50.537Z,53.13
2019-02-15T22:02:38.101Z,52.96
2019-02-15T22:05:25.779Z,53.21
2019-02-15T22:08:13.719Z,53.35
2019-02-15T22:11:02.281Z,53.34
2019-02-15T22:13:50.191Z,52.88
2019-02-15T22:16:38.139Z,53.19
2019-02-15T22:19:25.806Z,53.71
2019-02-15T22:22:13.760Z,54.47
2019-02-15T22:25:01.881Z,55.49
2019-02-15T22:27:49.803Z,55.67
2019-02-15T22:30:37.970Z,55.66
2019-02-15T22:33:25.630Z,55.62
2019-02-15T22:36:13.487Z,54.86
2019-02-15T22:39:01.379Z,55.15
2019-02-15T22:41:49.634Z,54.93
2019-02-15T22:44:37.538Z,54.22
2019-02-15T22:47:25.054Z,54.12
2019-02-15T22:50:13.126Z,54.23
2019-02-15T22:53:01.199Z,54.05
2019-02-15T22:55:49.494Z,54.36
2019-02-15T22:58:37.700Z,54.68
2019-02-15T23:01:25.986Z,54.41
2019-02-15T23:04:14.003Z,54.93
2019-02-15T23:07:03.225Z,55.79
2019-02-15T23:09:51.277Z,56.67
2019-02-15T23:12:39.375Z,56.31
2019-02-15T23:15:27.058Z,56.02
2019-02-15T23:18:15.289Z,56.17
2019-02-15T23:21:03.217Z,56.62
2019-02-15T23:23:50.990Z,56.77
2019-02-15T23:26:38.910Z,57.08
2019-02-15T23:29:27.113Z,57.23
2019-02-15T23:32:15.067Z,56.84
2019-02-15T23:35:03.360Z,57.05
2019-02-15T23:37:51.147Z,56.38
2019-02-15T23:40:38.978Z,56.31
2019-02-15T23:43:26.801Z,56.79
2019-02-15T23:46:14.715Z,57.31
2019-02-15T23:49:02.633Z,57.55
2019-02-15T23:51:50.806Z,58.29
2019-02-15T23:54:38.919Z,58.45
2019-02-15T23:57:27.029Z,58.91
